sensor_id;sensor_type;location;lat;lon;timestamp;P1;durP1;ratioP1;P2;durP2;ratioP2
79023;SDS011;70306;44.764;37.688;2023-11-18T00:00:55;12.10;;;5.63;;
79023;SDS011;70306;44.764;37.688;2023-11-18T00:02:02;31.52;;;7.18;;
79023;SDS011;70306;44.764;37.688;2023-11-18T00:03:04;15.35;;;6.05;;
79023;SDS011;70306;44.764;37.688;2023-11-18T00:04:06;9.95;;;5.25;;
79023;SDS011;70306;44.764;37.688;2023-11-18T00:05:11;12.45;;;5.70;;
79023;SDS011;70306;44.764;37.688;2023-11-18T00:06:12;23.05;;;8.15;;
79023;SDS011;70306;44.764;37.688;2023-11-18T00:07:14;7.13;;;4.97;;
79023;SDS011;70306;44.764;37.688;2023-11-18T00:08:16;13.43;;;5.35;;
79023;SDS011;70306;44.764;37.688;2023-11-18T00:09:17;44.60;;;7.57;;
79023;SDS011;70306;44.764;37.688;2023-11-18T00:10:21;21.17;;;7.30;;
79023;SDS011;70306;44.764;37.688;2023-11-18T00:11:22;22.15;;;7.18;;
79023;SDS011;70306;44.764;37.688;2023-11-18T00:12:25;14.60;;;6.13;;
79023;SDS011;70306;44.764;37.688;2023-11-18T00:13:26;12.02;;;6.13;;
79023;SDS011;70306;44.764;37.688;2023-11-18T00:14:28;10.75;;;5.97;;
79023;SDS011;70306;44.764;37.688;2023-11-18T00:15:30;9.43;;;6.65;;
79023;SDS011;70306;44.764;37.688;2023-11-18T00:16:32;15.05;;;6.90;;
79023;SDS011;70306;44.764;37.688;2023-11-18T00:17:33;11.25;;;5.22;;
79023;SDS011;70306;44.764;37.688;2023-11-18T00:18:35;10.20;;;5.00;;
79023;SDS011;70306;44.764;37.688;2023-11-18T00:19:37;17.10;;;6.65;;
79023;SDS011;70306;44.764;37.688;2023-11-18T00:20:38;38.13;;;10.05;;
79023;SDS011;70306;44.764;37.688;2023-11-18T00:21:40;22.52;;;7.13;;
79023;SDS011;70306;44.764;37.688;2023-11-18T00:22:42;23.95;;;7.68;;
79023;SDS011;70306;44.764;37.688;2023-11-18T00:23:45;24.85;;;7.47;;
79023;SDS011;70306;44.764;37.688;2023-11-18T00:24:47;14.10;;;6.07;;
79023;SDS011;70306;44.764;37.688;2023-11-18T00:25:48;13.70;;;6.78;;
79023;SDS011;70306;44.764;37.688;2023-11-18T00:26:50;9.20;;;5.80;;
79023;SDS011;70306;44.764;37.688;2023-11-18T00:27:51;16.98;;;7.05;;
79023;SDS011;70306;44.764;37.688;2023-11-18T00:28:53;24.95;;;9.05;;
79023;SDS011;70306;44.764;37.688;2023-11-18T00:29:55;15.20;;;6.53;;
79023;SDS011;70306;44.764;37.688;2023-11-18T00:30:56;21.55;;;8.30;;
79023;SDS011;70306;44.764;37.688;2023-11-18T00:31:58;46.55;;;9.18;;
79023;SDS011;70306;44.764;37.688;2023-11-18T00:32:59;36.20;;;9.27;;
79023;SDS011;70306;44.764;37.688;2023-11-18T00:34:01;35.50;;;8.23;;
79023;SDS011;70306;44.764;37.688;2023-11-18T00:35:03;55.20;;;11.98;;
79023;SDS011;70306;44.764;37.688;2023-11-18T00:36:06;30.05;;;9.15;;
79023;SDS011;70306;44.764;37.688;2023-11-18T00:37:08;15.05;;;7.60;;
79023;SDS011;70306;44.764;37.688;2023-11-18T00:38:10;35.35;;;8.75;;
79023;SDS011;70306;44.764;37.688;2023-11-18T00:39:12;82.75;;;13.43;;
79023;SDS011;70306;44.764;37.688;2023-11-18T00:40:14;13.05;;;7.03;;
79023;SDS011;70306;44.764;37.688;2023-11-18T00:41:18;11.85;;;6.60;;
79023;SDS011;70306;44.764;37.688;2023-11-18T00:42:20;32.60;;;8.80;;
79023;SDS011;70306;44.764;37.688;2023-11-18T00:43:22;68.57;;;11.80;;
79023;SDS011;70306;44.764;37.688;2023-11-18T00:44:23;12.77;;;6.22;;
79023;SDS011;70306;44.764;37.688;2023-11-18T00:45:25;11.07;;;6.40;;
79023;SDS011;70306;44.764;37.688;2023-11-18T00:46:28;28.05;;;7.82;;
79023;SDS011;70306;44.764;37.688;2023-11-18T00:47:30;14.18;;;5.95;;
79023;SDS011;70306;44.764;37.688;2023-11-18T00:48:32;12.23;;;6.45;;
79023;SDS011;70306;44.764;37.688;2023-11-18T00:49:34;8.38;;;5.63;;
79023;SDS011;70306;44.764;37.688;2023-11-18T00:50:37;30.30;;;8.10;;
79023;SDS011;70306;44.764;37.688;2023-11-18T00:51:39;15.07;;;6.70;;
79023;SDS011;70306;44.764;37.688;2023-11-18T00:52:42;38.22;;;8.82;;
79023;SDS011;70306;44.764;37.688;2023-11-18T00:53:44;91.82;;;11.68;;
79023;SDS011;70306;44.764;37.688;2023-11-18T00:54:46;95.80;;;12.85;;
79023;SDS011;70306;44.764;37.688;2023-11-18T00:55:48;38.17;;;8.77;;
79023;SDS011;70306;44.764;37.688;2023-11-18T00:56:50;104.65;;;17.05;;
79023;SDS011;70306;44.764;37.688;2023-11-18T00:57:52;128.88;;;18.27;;
79023;SDS011;70306;44.764;37.688;2023-11-18T00:58:54;84.00;;;15.52;;
79023;SDS011;70306;44.764;37.688;2023-11-18T00:59:56;91.25;;;14.35;;
79023;SDS011;70306;44.764;37.688;2023-11-18T01:00:59;30.48;;;9.15;;
79023;SDS011;70306;44.764;37.688;2023-11-18T01:02:02;32.38;;;10.15;;
79023;SDS011;70306;44.764;37.688;2023-11-18T01:03:05;58.50;;;11.93;;
79023;SDS011;70306;44.764;37.688;2023-11-18T01:04:07;38.45;;;9.30;;
79023;SDS011;70306;44.764;37.688;2023-11-18T01:05:11;78.22;;;12.60;;
79023;SDS011;70306;44.764;37.688;2023-11-18T01:06:14;56.83;;;10.90;;
79023;SDS011;70306;44.764;37.688;2023-11-18T01:07:19;17.10;;;6.47;;
79023;SDS011;70306;44.764;37.688;2023-11-18T01:08:21;57.60;;;9.90;;
79023;SDS011;70306;44.764;37.688;2023-11-18T01:09:23;24.02;;;6.72;;
79023;SDS011;70306;44.764;37.688;2023-11-18T01:10:26;8.40;;;4.68;;
79023;SDS011;70306;44.764;37.688;2023-11-18T01:11:28;18.77;;;5.10;;
79023;SDS011;70306;44.764;37.688;2023-11-18T01:12:30;11.48;;;4.55;;
79023;SDS011;70306;44.764;37.688;2023-11-18T01:13:32;14.05;;;4.97;;
79023;SDS011;70306;44.764;37.688;2023-11-18T01:14:38;8.93;;;4.88;;
79023;SDS011;70306;44.764;37.688;2023-11-18T01:15:40;15.02;;;5.70;;
79023;SDS011;70306;44.764;37.688;2023-11-18T01:16:44;12.60;;;5.15;;
79023;SDS011;70306;44.764;37.688;2023-11-18T01:17:47;14.70;;;5.10;;
79023;SDS011;70306;44.764;37.688;2023-11-18T01:18:49;11.88;;;5.28;;
79023;SDS011;70306;44.764;37.688;2023-11-18T01:19:51;8.10;;;3.90;;
79023;SDS011;70306;44.764;37.688;2023-11-18T01:20:53;14.18;;;6.05;;
79023;SDS011;70306;44.764;37.688;2023-11-18T01:21:55;13.05;;;5.43;;
79023;SDS011;70306;44.764;37.688;2023-11-18T01:22:57;82.30;;;11.35;;
79023;SDS011;70306;44.764;37.688;2023-11-18T01:23:59;49.60;;;9.05;;
79023;SDS011;70306;44.764;37.688;2023-11-18T01:25:04;43.03;;;7.30;;
79023;SDS011;70306;44.764;37.688;2023-11-18T01:26:08;55.28;;;7.03;;
79023;SDS011;70306;44.764;37.688;2023-11-18T01:27:11;34.92;;;5.43;;
79023;SDS011;70306;44.764;37.688;2023-11-18T01:28:14;36.60;;;7.10;;
79023;SDS011;70306;44.764;37.688;2023-11-18T01:29:16;19.83;;;5.68;;
79023;SDS011;70306;44.764;37.688;2023-11-18T01:30:18;43.17;;;6.93;;
79023;SDS011;70306;44.764;37.688;2023-11-18T01:31:20;21.35;;;6.28;;
79023;SDS011;70306;44.764;37.688;2023-11-18T01:32:23;21.55;;;5.85;;
79023;SDS011;70306;44.764;37.688;2023-11-18T01:33:25;19.35;;;4.90;;
79023;SDS011;70306;44.764;37.688;2023-11-18T01:34:27;25.92;;;6.15;;
79023;SDS011;70306;44.764;37.688;2023-11-18T01:35:29;22.15;;;5.72;;
79023;SDS011;70306;44.764;37.688;2023-11-18T01:36:32;25.58;;;4.88;;
79023;SDS011;70306;44.764;37.688;2023-11-18T01:37:34;8.55;;;4.47;;
79023;SDS011;70306;44.764;37.688;2023-11-18T01:38:37;32.38;;;6.78;;
79023;SDS011;70306;44.764;37.688;2023-11-18T01:39:40;8.98;;;2.53;;
79023;SDS011;70306;44.764;37.688;2023-11-18T01:40:42;8.13;;;3.60;;
79023;SDS011;70306;44.764;37.688;2023-11-18T01:41:45;16.95;;;3.88;;
79023;SDS011;70306;44.764;37.688;2023-11-18T01:42:50;9.75;;;3.30;;
79023;SDS011;70306;44.764;37.688;2023-11-18T01:43:52;10.02;;;3.63;;
79023;SDS011;70306;44.764;37.688;2023-11-18T01:44:54;13.82;;;3.90;;
79023;SDS011;70306;44.764;37.688;2023-11-18T01:46:02;15.98;;;4.10;;
79023;SDS011;70306;44.764;37.688;2023-11-18T01:47:06;19.42;;;4.13;;
79023;SDS011;70306;44.764;37.688;2023-11-18T01:48:11;13.43;;;3.47;;
79023;SDS011;70306;44.764;37.688;2023-11-18T01:49:15;11.35;;;3.40;;
79023;SDS011;70306;44.764;37.688;2023-11-18T01:50:19;7.03;;;3.13;;
79023;SDS011;70306;44.764;37.688;2023-11-18T01:51:21;8.18;;;3.65;;
79023;SDS011;70306;44.764;37.688;2023-11-18T01:52:24;9.48;;;3.75;;
79023;SDS011;70306;44.764;37.688;2023-11-18T01:53:27;16.42;;;4.45;;
79023;SDS011;70306;44.764;37.688;2023-11-18T01:54:30;15.30;;;4.18;;
79023;SDS011;70306;44.764;37.688;2023-11-18T01:55:33;8.75;;;3.83;;
79023;SDS011;70306;44.764;37.688;2023-11-18T01:56:35;7.20;;;3.38;;
79023;SDS011;70306;44.764;37.688;2023-11-18T01:57:37;7.05;;;3.42;;
79023;SDS011;70306;44.764;37.688;2023-11-18T01:58:41;21.20;;;4.15;;
79023;SDS011;70306;44.764;37.688;2023-11-18T01:59:43;12.35;;;3.90;;
79023;SDS011;70306;44.764;37.688;2023-11-18T02:00:45;9.55;;;3.80;;
79023;SDS011;70306;44.764;37.688;2023-11-18T02:01:48;10.85;;;4.47;;
79023;SDS011;70306;44.764;37.688;2023-11-18T02:02:52;14.65;;;3.60;;
79023;SDS011;70306;44.764;37.688;2023-11-18T02:03:54;11.60;;;4.10;;
79023;SDS011;70306;44.764;37.688;2023-11-18T02:04:55;7.35;;;4.03;;
79023;SDS011;70306;44.764;37.688;2023-11-18T02:05:57;11.80;;;3.95;;
79023;SDS011;70306;44.764;37.688;2023-11-18T02:06:59;12.23;;;4.65;;
79023;SDS011;70306;44.764;37.688;2023-11-18T02:08:05;45.67;;;6.28;;
79023;SDS011;70306;44.764;37.688;2023-11-18T02:09:10;13.27;;;4.75;;
79023;SDS011;70306;44.764;37.688;2023-11-18T02:10:14;21.25;;;6.05;;
79023;SDS011;70306;44.764;37.688;2023-11-18T02:11:18;50.75;;;6.25;;
79023;SDS011;70306;44.764;37.688;2023-11-18T02:12:27;20.13;;;5.60;;
79023;SDS011;70306;44.764;37.688;2023-11-18T02:13:36;36.67;;;6.65;;
79023;SDS011;70306;44.764;37.688;2023-11-18T02:14:41;16.38;;;4.22;;
79023;SDS011;70306;44.764;37.688;2023-11-18T02:15:46;20.15;;;4.35;;
79023;SDS011;70306;44.764;37.688;2023-11-18T02:16:49;15.48;;;5.78;;
79023;SDS011;70306;44.764;37.688;2023-11-18T02:17:54;49.53;;;7.32;;
79023;SDS011;70306;44.764;37.688;2023-11-18T02:18:58;16.83;;;4.15;;
79023;SDS011;70306;44.764;37.688;2023-11-18T02:20:02;8.65;;;4.50;;
79023;SDS011;70306;44.764;37.688;2023-11-18T02:21:07;15.80;;;4.38;;
79023;SDS011;70306;44.764;37.688;2023-11-18T02:22:11;8.00;;;4.10;;
79023;SDS011;70306;44.764;37.688;2023-11-18T02:23:14;8.90;;;4.15;;
79023;SDS011;70306;44.764;37.688;2023-11-18T02:25:33;7.72;;;3.42;;
79023;SDS011;70306;44.764;37.688;2023-11-18T02:26:35;12.00;;;4.18;;
79023;SDS011;70306;44.764;37.688;2023-11-18T02:27:37;15.13;;;4.38;;
79023;SDS011;70306;44.764;37.688;2023-11-18T02:28:39;26.80;;;4.75;;
79023;SDS011;70306;44.764;37.688;2023-11-18T02:29:44;7.95;;;4.15;;
79023;SDS011;70306;44.764;37.688;2023-11-18T02:30:50;25.17;;;5.75;;
79023;SDS011;70306;44.764;37.688;2023-11-18T02:32:02;30.70;;;5.03;;
79023;SDS011;70306;44.764;37.688;2023-11-18T02:33:19;10.85;;;3.92;;
79023;SDS011;70306;44.764;37.688;2023-11-18T02:34:29;27.77;;;5.38;;
79023;SDS011;70306;44.764;37.688;2023-11-18T02:35:38;30.52;;;5.22;;
79023;SDS011;70306;44.764;37.688;2023-11-18T02:36:49;8.23;;;3.30;;
79023;SDS011;70306;44.764;37.688;2023-11-18T02:37:52;9.27;;;3.80;;
79023;SDS011;70306;44.764;37.688;2023-11-18T02:38:56;10.48;;;3.15;;
79023;SDS011;70306;44.764;37.688;2023-11-18T02:40:01;10.45;;;4.47;;
79023;SDS011;70306;44.764;37.688;2023-11-18T02:41:16;17.60;;;4.35;;
79023;SDS011;70306;44.764;37.688;2023-11-18T02:42:19;19.63;;;4.38;;
79023;SDS011;70306;44.764;37.688;2023-11-18T02:43:24;8.73;;;3.28;;
79023;SDS011;70306;44.764;37.688;2023-11-18T02:44:30;6.45;;;2.95;;
79023;SDS011;70306;44.764;37.688;2023-11-18T02:45:33;14.77;;;3.75;;
79023;SDS011;70306;44.764;37.688;2023-11-18T02:46:37;21.52;;;5.45;;
79023;SDS011;70306;44.764;37.688;2023-11-18T02:47:40;23.77;;;5.45;;
79023;SDS011;70306;44.764;37.688;2023-11-18T02:48:42;46.28;;;5.95;;
79023;SDS011;70306;44.764;37.688;2023-11-18T02:49:45;23.55;;;5.32;;
79023;SDS011;70306;44.764;37.688;2023-11-18T02:50:50;18.45;;;5.57;;
79023;SDS011;70306;44.764;37.688;2023-11-18T02:51:52;24.83;;;5.90;;
79023;SDS011;70306;44.764;37.688;2023-11-18T02:52:54;29.50;;;4.13;;
79023;SDS011;70306;44.764;37.688;2023-11-18T02:53:56;6.88;;;3.42;;
79023;SDS011;70306;44.764;37.688;2023-11-18T02:54:59;5.18;;;2.92;;
79023;SDS011;70306;44.764;37.688;2023-11-18T02:56:01;11.48;;;3.30;;
79023;SDS011;70306;44.764;37.688;2023-11-18T02:57:06;15.02;;;4.05;;
79023;SDS011;70306;44.764;37.688;2023-11-18T02:58:09;14.73;;;3.50;;
79023;SDS011;70306;44.764;37.688;2023-11-18T02:59:11;14.50;;;4.30;;
79023;SDS011;70306;44.764;37.688;2023-11-18T03:00:14;9.57;;;2.65;;
79023;SDS011;70306;44.764;37.688;2023-11-18T03:01:23;4.03;;;2.67;;
79023;SDS011;70306;44.764;37.688;2023-11-18T03:02:27;7.68;;;3.30;;
79023;SDS011;70306;44.764;37.688;2023-11-18T03:03:32;13.38;;;3.75;;
79023;SDS011;70306;44.764;37.688;2023-11-18T03:04:34;7.93;;;3.10;;
79023;SDS011;70306;44.764;37.688;2023-11-18T03:05:36;5.80;;;2.88;;
79023;SDS011;70306;44.764;37.688;2023-11-18T03:06:39;6.03;;;2.97;;
79023;SDS011;70306;44.764;37.688;2023-11-18T03:07:42;3.97;;;2.92;;
79023;SDS011;70306;44.764;37.688;2023-11-18T03:08:45;13.82;;;3.42;;
79023;SDS011;70306;44.764;37.688;2023-11-18T03:09:48;7.32;;;2.85;;
79023;SDS011;70306;44.764;37.688;2023-11-18T03:10:50;6.65;;;3.13;;
79023;SDS011;70306;44.764;37.688;2023-11-18T03:11:53;9.65;;;3.33;;
79023;SDS011;70306;44.764;37.688;2023-11-18T03:12:56;5.40;;;3.05;;
79023;SDS011;70306;44.764;37.688;2023-11-18T03:13:58;8.13;;;3.72;;
79023;SDS011;70306;44.764;37.688;2023-11-18T03:15:01;10.15;;;3.55;;
79023;SDS011;70306;44.764;37.688;2023-11-18T03:16:07;7.43;;;3.70;;
79023;SDS011;70306;44.764;37.688;2023-11-18T03:17:14;6.43;;;3.20;;
79023;SDS011;70306;44.764;37.688;2023-11-18T03:18:16;13.77;;;3.83;;
79023;SDS011;70306;44.764;37.688;2023-11-18T03:19:18;13.63;;;4.32;;
79023;SDS011;70306;44.764;37.688;2023-11-18T03:20:21;10.23;;;3.05;;
79023;SDS011;70306;44.764;37.688;2023-11-18T03:21:24;7.25;;;3.30;;
79023;SDS011;70306;44.764;37.688;2023-11-18T03:22:27;12.38;;;3.70;;
79023;SDS011;70306;44.764;37.688;2023-11-18T03:23:29;22.52;;;4.72;;
79023;SDS011;70306;44.764;37.688;2023-11-18T03:24:31;7.22;;;2.90;;
79023;SDS011;70306;44.764;37.688;2023-11-18T03:25:33;10.07;;;3.35;;
79023;SDS011;70306;44.764;37.688;2023-11-18T03:26:35;9.57;;;3.38;;
79023;SDS011;70306;44.764;37.688;2023-11-18T03:27:38;14.77;;;3.63;;
79023;SDS011;70306;44.764;37.688;2023-11-18T03:28:41;12.65;;;3.33;;
79023;SDS011;70306;44.764;37.688;2023-11-18T03:29:43;4.47;;;2.75;;
79023;SDS011;70306;44.764;37.688;2023-11-18T03:30:47;4.80;;;3.22;;
79023;SDS011;70306;44.764;37.688;2023-11-18T03:31:49;14.43;;;3.53;;
79023;SDS011;70306;44.764;37.688;2023-11-18T03:32:51;8.77;;;3.00;;
79023;SDS011;70306;44.764;37.688;2023-11-18T03:33:53;10.75;;;3.63;;
79023;SDS011;70306;44.764;37.688;2023-11-18T03:34:55;16.45;;;4.28;;
79023;SDS011;70306;44.764;37.688;2023-11-18T03:36:00;7.95;;;3.00;;
79023;SDS011;70306;44.764;37.688;2023-11-18T03:37:02;6.97;;;3.15;;
79023;SDS011;70306;44.764;37.688;2023-11-18T03:38:04;8.23;;;2.83;;
79023;SDS011;70306;44.764;37.688;2023-11-18T03:39:06;18.58;;;4.57;;
79023;SDS011;70306;44.764;37.688;2023-11-18T03:40:08;10.55;;;4.13;;
79023;SDS011;70306;44.764;37.688;2023-11-18T03:41:14;7.20;;;3.75;;
79023;SDS011;70306;44.764;37.688;2023-11-18T03:42:16;23.80;;;4.50;;
79023;SDS011;70306;44.764;37.688;2023-11-18T03:43:19;11.32;;;4.93;;
79023;SDS011;70306;44.764;37.688;2023-11-18T03:44:21;7.28;;;3.50;;
79023;SDS011;70306;44.764;37.688;2023-11-18T03:45:25;7.80;;;3.25;;
79023;SDS011;70306;44.764;37.688;2023-11-18T03:46:27;7.15;;;3.00;;
79023;SDS011;70306;44.764;37.688;2023-11-18T03:47:35;17.13;;;3.45;;
79023;SDS011;70306;44.764;37.688;2023-11-18T03:48:37;5.25;;;2.55;;
79023;SDS011;70306;44.764;37.688;2023-11-18T03:49:39;11.68;;;3.95;;
79023;SDS011;70306;44.764;37.688;2023-11-18T03:50:41;4.05;;;2.42;;
79023;SDS011;70306;44.764;37.688;2023-11-18T03:51:45;9.25;;;3.13;;
79023;SDS011;70306;44.764;37.688;2023-11-18T03:52:47;42.58;;;6.35;;
79023;SDS011;70306;44.764;37.688;2023-11-18T03:53:49;7.95;;;3.60;;
79023;SDS011;70306;44.764;37.688;2023-11-18T03:54:51;7.97;;;3.95;;
79023;SDS011;70306;44.764;37.688;2023-11-18T03:55:53;5.05;;;4.18;;
79023;SDS011;70306;44.764;37.688;2023-11-18T03:56:55;8.43;;;3.88;;
79023;SDS011;70306;44.764;37.688;2023-11-18T03:57:56;11.95;;;3.63;;
79023;SDS011;70306;44.764;37.688;2023-11-18T03:58:59;5.25;;;3.88;;
79023;SDS011;70306;44.764;37.688;2023-11-18T04:00:01;4.95;;;3.65;;
79023;SDS011;70306;44.764;37.688;2023-11-18T04:01:11;36.22;;;8.73;;
79023;SDS011;70306;44.764;37.688;2023-11-18T04:02:13;6.25;;;2.25;;
79023;SDS011;70306;44.764;37.688;2023-11-18T04:03:14;120.28;;;11.90;;
79023;SDS011;70306;44.764;37.688;2023-11-18T04:04:16;51.75;;;7.80;;
79023;SDS011;70306;44.764;37.688;2023-11-18T04:05:18;18.38;;;4.72;;
79023;SDS011;70306;44.764;37.688;2023-11-18T04:06:21;22.52;;;4.22;;
79023;SDS011;70306;44.764;37.688;2023-11-18T04:07:23;53.10;;;5.65;;
79023;SDS011;70306;44.764;37.688;2023-11-18T04:08:25;80.45;;;8.85;;
79023;SDS011;70306;44.764;37.688;2023-11-18T04:09:27;63.95;;;8.93;;
79023;SDS011;70306;44.764;37.688;2023-11-18T04:10:29;12.45;;;4.20;;
79023;SDS011;70306;44.764;37.688;2023-11-18T04:11:31;11.38;;;4.30;;
79023;SDS011;70306;44.764;37.688;2023-11-18T04:12:32;11.85;;;4.05;;
79023;SDS011;70306;44.764;37.688;2023-11-18T04:13:34;12.45;;;3.83;;
79023;SDS011;70306;44.764;37.688;2023-11-18T04:14:36;7.82;;;3.95;;
79023;SDS011;70306;44.764;37.688;2023-11-18T04:15:39;6.95;;;3.67;;
79023;SDS011;70306;44.764;37.688;2023-11-18T04:16:40;5.75;;;2.13;;
79023;SDS011;70306;44.764;37.688;2023-11-18T04:17:42;7.60;;;3.28;;
79023;SDS011;70306;44.764;37.688;2023-11-18T04:18:46;9.60;;;3.65;;
79023;SDS011;70306;44.764;37.688;2023-11-18T04:19:48;14.75;;;4.90;;
79023;SDS011;70306;44.764;37.688;2023-11-18T04:20:50;4.90;;;3.53;;
79023;SDS011;70306;44.764;37.688;2023-11-18T04:21:52;17.90;;;5.45;;
79023;SDS011;70306;44.764;37.688;2023-11-18T04:22:54;4.20;;;2.95;;
79023;SDS011;70306;44.764;37.688;2023-11-18T04:23:56;5.90;;;3.63;;
79023;SDS011;70306;44.764;37.688;2023-11-18T04:24:58;10.35;;;3.80;;
79023;SDS011;70306;44.764;37.688;2023-11-18T04:25:59;18.55;;;4.68;;
79023;SDS011;70306;44.764;37.688;2023-11-18T04:27:02;28.15;;;4.70;;
79023;SDS011;70306;44.764;37.688;2023-11-18T04:28:04;15.35;;;3.22;;
79023;SDS011;70306;44.764;37.688;2023-11-18T04:29:06;16.05;;;3.20;;
79023;SDS011;70306;44.764;37.688;2023-11-18T04:30:09;5.90;;;3.45;;
79023;SDS011;70306;44.764;37.688;2023-11-18T04:31:11;7.80;;;3.72;;
79023;SDS011;70306;44.764;37.688;2023-11-18T04:32:13;6.60;;;3.15;;
79023;SDS011;70306;44.764;37.688;2023-11-18T04:33:14;11.88;;;3.95;;
79023;SDS011;70306;44.764;37.688;2023-11-18T04:34:16;13.05;;;4.22;;
79023;SDS011;70306;44.764;37.688;2023-11-18T04:35:18;11.93;;;4.18;;
79023;SDS011;70306;44.764;37.688;2023-11-18T04:36:20;14.57;;;4.53;;
79023;SDS011;70306;44.764;37.688;2023-11-18T04:37:23;28.42;;;4.93;;
79023;SDS011;70306;44.764;37.688;2023-11-18T04:38:25;32.75;;;6.95;;
79023;SDS011;70306;44.764;37.688;2023-11-18T04:39:27;33.97;;;7.30;;
79023;SDS011;70306;44.764;37.688;2023-11-18T04:40:31;23.00;;;5.55;;
79023;SDS011;70306;44.764;37.688;2023-11-18T04:41:32;28.25;;;5.88;;
79023;SDS011;70306;44.764;37.688;2023-11-18T04:42:34;61.63;;;37.55;;
79023;SDS011;70306;44.764;37.688;2023-11-18T04:43:36;38.42;;;21.13;;
79023;SDS011;70306;44.764;37.688;2023-11-18T04:44:38;16.13;;;6.85;;
79023;SDS011;70306;44.764;37.688;2023-11-18T04:45:44;13.90;;;8.52;;
79023;SDS011;70306;44.764;37.688;2023-11-18T04:46:52;12.25;;;9.90;;
79023;SDS011;70306;44.764;37.688;2023-11-18T04:47:54;23.15;;;8.95;;
79023;SDS011;70306;44.764;37.688;2023-11-18T04:48:55;18.00;;;8.02;;
79023;SDS011;70306;44.764;37.688;2023-11-18T04:49:57;16.83;;;7.85;;
79023;SDS011;70306;44.764;37.688;2023-11-18T04:50:59;10.40;;;6.03;;
79023;SDS011;70306;44.764;37.688;2023-11-18T04:52:01;11.43;;;6.45;;
79023;SDS011;70306;44.764;37.688;2023-11-18T04:53:03;10.63;;;5.30;;
79023;SDS011;70306;44.764;37.688;2023-11-18T04:54:05;16.95;;;6.28;;
79023;SDS011;70306;44.764;37.688;2023-11-18T04:55:08;34.50;;;8.63;;
79023;SDS011;70306;44.764;37.688;2023-11-18T04:56:14;29.95;;;7.03;;
79023;SDS011;70306;44.764;37.688;2023-11-18T04:57:17;56.65;;;11.32;;
79023;SDS011;70306;44.764;37.688;2023-11-18T04:58:19;52.03;;;18.65;;
79023;SDS011;70306;44.764;37.688;2023-11-18T04:59:21;41.35;;;16.08;;
79023;SDS011;70306;44.764;37.688;2023-11-18T05:00:23;31.15;;;13.32;;
79023;SDS011;70306;44.764;37.688;2023-11-18T05:01:25;26.25;;;12.65;;
79023;SDS011;70306;44.764;37.688;2023-11-18T05:02:32;62.80;;;12.43;;
79023;SDS011;70306;44.764;37.688;2023-11-18T05:03:35;47.75;;;11.90;;
79023;SDS011;70306;44.764;37.688;2023-11-18T05:04:37;90.47;;;16.60;;
79023;SDS011;70306;44.764;37.688;2023-11-18T05:05:41;50.17;;;9.00;;
79023;SDS011;70306;44.764;37.688;2023-11-18T05:06:43;34.40;;;8.60;;
79023;SDS011;70306;44.764;37.688;2023-11-18T05:07:45;52.95;;;8.60;;
79023;SDS011;70306;44.764;37.688;2023-11-18T05:08:47;28.20;;;7.57;;
79023;SDS011;70306;44.764;37.688;2023-11-18T05:09:48;46.53;;;6.25;;
79023;SDS011;70306;44.764;37.688;2023-11-18T05:10:50;25.13;;;5.07;;
79023;SDS011;70306;44.764;37.688;2023-11-18T05:11:52;18.38;;;7.97;;
79023;SDS011;70306;44.764;37.688;2023-11-18T05:12:54;186.82;;;18.38;;
79023;SDS011;70306;44.764;37.688;2023-11-18T05:13:56;18.02;;;5.32;;
79023;SDS011;70306;44.764;37.688;2023-11-18T05:14:58;90.13;;;11.18;;
79023;SDS011;70306;44.764;37.688;2023-11-18T05:16:00;34.00;;;9.77;;
79023;SDS011;70306;44.764;37.688;2023-11-18T05:17:01;34.13;;;8.48;;
79023;SDS011;70306;44.764;37.688;2023-11-18T05:19:12;14.27;;;5.15;;
79023;SDS011;70306;44.764;37.688;2023-11-18T05:20:15;87.00;;;10.80;;
79023;SDS011;70306;44.764;37.688;2023-11-18T05:21:22;8.82;;;4.60;;
79023;SDS011;70306;44.764;37.688;2023-11-18T05:22:24;31.38;;;5.57;;
79023;SDS011;70306;44.764;37.688;2023-11-18T05:23:28;9.90;;;5.47;;
79023;SDS011;70306;44.764;37.688;2023-11-18T05:24:33;13.40;;;5.25;;
79023;SDS011;70306;44.764;37.688;2023-11-18T05:25:34;14.73;;;6.47;;
79023;SDS011;70306;44.764;37.688;2023-11-18T05:26:37;29.63;;;11.45;;
79023;SDS011;70306;44.764;37.688;2023-11-18T05:27:38;9.15;;;7.05;;
79023;SDS011;70306;44.764;37.688;2023-11-18T05:28:44;181.85;;;17.33;;
79023;SDS011;70306;44.764;37.688;2023-11-18T05:29:46;80.90;;;11.00;;
79023;SDS011;70306;44.764;37.688;2023-11-18T05:30:55;15.68;;;5.13;;
79023;SDS011;70306;44.764;37.688;2023-11-18T05:31:59;128.35;;;12.52;;
79023;SDS011;70306;44.764;37.688;2023-11-18T05:33:03;17.92;;;5.55;;
79023;SDS011;70306;44.764;37.688;2023-11-18T05:34:10;85.45;;;9.57;;
79023;SDS011;70306;44.764;37.688;2023-11-18T05:35:13;12.25;;;4.50;;
79023;SDS011;70306;44.764;37.688;2023-11-18T05:36:14;11.90;;;5.50;;
79023;SDS011;70306;44.764;37.688;2023-11-18T05:37:16;29.00;;;6.32;;
79023;SDS011;70306;44.764;37.688;2023-11-18T05:38:20;34.08;;;6.53;;
79023;SDS011;70306;44.764;37.688;2023-11-18T05:39:27;25.60;;;11.23;;
79023;SDS011;70306;44.764;37.688;2023-11-18T05:40:31;13.82;;;8.00;;
79023;SDS011;70306;44.764;37.688;2023-11-18T05:41:33;35.65;;;7.75;;
79023;SDS011;70306;44.764;37.688;2023-11-18T05:42:36;59.88;;;11.60;;
79023;SDS011;70306;44.764;37.688;2023-11-18T05:43:38;45.08;;;8.90;;
79023;SDS011;70306;44.764;37.688;2023-11-18T05:44:52;24.30;;;5.57;;
79023;SDS011;70306;44.764;37.688;2023-11-18T05:46:00;19.23;;;5.40;;
79023;SDS011;70306;44.764;37.688;2023-11-18T05:47:21;45.58;;;8.48;;
79023;SDS011;70306;44.764;37.688;2023-11-18T05:48:23;65.40;;;9.95;;
79023;SDS011;70306;44.764;37.688;2023-11-18T05:49:25;14.75;;;6.13;;
79023;SDS011;70306;44.764;37.688;2023-11-18T05:50:27;71.85;;;10.40;;
79023;SDS011;70306;44.764;37.688;2023-11-18T05:51:29;90.28;;;13.90;;
79023;SDS011;70306;44.764;37.688;2023-11-18T05:52:33;56.90;;;7.32;;
79023;SDS011;70306;44.764;37.688;2023-11-18T05:53:42;27.63;;;7.90;;
79023;SDS011;70306;44.764;37.688;2023-11-18T05:54:46;26.05;;;6.07;;
79023;SDS011;70306;44.764;37.688;2023-11-18T05:55:51;23.33;;;6.68;;
79023;SDS011;70306;44.764;37.688;2023-11-18T05:56:56;24.67;;;7.38;;
79023;SDS011;70306;44.764;37.688;2023-11-18T05:58:00;15.10;;;5.85;;
79023;SDS011;70306;44.764;37.688;2023-11-18T05:59:03;20.15;;;6.07;;
79023;SDS011;70306;44.764;37.688;2023-11-18T06:00:05;59.92;;;9.23;;
79023;SDS011;70306;44.764;37.688;2023-11-18T06:01:13;18.98;;;8.32;;
79023;SDS011;70306;44.764;37.688;2023-11-18T06:02:18;33.42;;;12.05;;
79023;SDS011;70306;44.764;37.688;2023-11-18T06:03:20;16.38;;;8.07;;
79023;SDS011;70306;44.764;37.688;2023-11-18T06:04:22;17.25;;;9.02;;
79023;SDS011;70306;44.764;37.688;2023-11-18T06:05:24;26.95;;;7.75;;
79023;SDS011;70306;44.764;37.688;2023-11-18T06:06:27;10.70;;;4.43;;
79023;SDS011;70306;44.764;37.688;2023-11-18T06:07:29;11.70;;;5.70;;
79023;SDS011;70306;44.764;37.688;2023-11-18T06:08:32;28.98;;;7.72;;
79023;SDS011;70306;44.764;37.688;2023-11-18T06:09:35;30.63;;;6.82;;
79023;SDS011;70306;44.764;37.688;2023-11-18T06:10:37;14.77;;;6.05;;
79023;SDS011;70306;44.764;37.688;2023-11-18T06:11:39;12.98;;;7.57;;
79023;SDS011;70306;44.764;37.688;2023-11-18T06:12:42;19.33;;;7.32;;